sensor_id;sensor_type;location;lat;lon;timestamp;P1;durP1;ratioP1;P2;durP2;ratioP2
56381;SDS011;50261;51.150;4.470;2022-08-07T00:01:39;7.65;;;2.75;;
56381;SDS011;50261;51.150;4.470;2022-08-07T00:04:05;4.57;;;2.40;;
56381;SDS011;50261;51.150;4.470;2022-08-07T00:06:31;4.47;;;2.53;;
56381;SDS011;50261;51.150;4.470;2022-08-07T00:08:57;4.40;;;2.33;;
56381;SDS011;50261;51.150;4.470;2022-08-07T00:11:23;4.63;;;2.40;;
56381;SDS011;50261;51.150;4.470;2022-08-07T00:13:48;4.22;;;2.30;;
56381;SDS011;50261;51.150;4.470;2022-08-07T00:16:14;5.88;;;2.33;;
56381;SDS011;50261;51.150;4.470;2022-08-07T00:18:40;3.53;;;2.17;;
56381;SDS011;50261;51.150;4.470;2022-08-07T00:21:07;4.35;;;2.10;;
56381;SDS011;50261;51.150;4.470;2022-08-07T00:23:33;3.50;;;2.10;;
56381;SDS011;50261;51.150;4.470;2022-08-07T00:26:00;6.90;;;2.40;;
56381;SDS011;50261;51.150;4.470;2022-08-07T00:28:26;3.60;;;2.17;;
56381;SDS011;50261;51.150;4.470;2022-08-07T00:30:52;4.07;;;2.38;;
56381;SDS011;50261;51.150;4.470;2022-08-07T00:33:18;3.42;;;2.30;;
56381;SDS011;50261;51.150;4.470;2022-08-07T00:35:44;4.97;;;2.28;;
56381;SDS011;50261;51.150;4.470;2022-08-07T00:38:09;5.22;;;2.67;;
56381;SDS011;50261;51.150;4.470;2022-08-07T00:40:35;6.95;;;2.80;;
56381;SDS011;50261;51.150;4.470;2022-08-07T00:43:02;4.40;;;2.50;;
56381;SDS011;50261;51.150;4.470;2022-08-07T00:45:27;4.40;;;2.58;;
56381;SDS011;50261;51.150;4.470;2022-08-07T00:47:53;5.55;;;2.80;;
56381;SDS011;50261;51.150;4.470;2022-08-07T00:50:19;7.78;;;3.10;;
56381;SDS011;50261;51.150;4.470;2022-08-07T00:52:44;8.55;;;3.33;;
56381;SDS011;50261;51.150;4.470;2022-08-07T00:55:10;5.93;;;3.40;;
56381;SDS011;50261;51.150;4.470;2022-08-07T00:57:36;4.28;;;2.80;;
56381;SDS011;50261;51.150;4.470;2022-08-07T01:00:03;4.63;;;2.58;;
56381;SDS011;50261;51.150;4.470;2022-08-07T01:02:29;6.10;;;2.78;;
56381;SDS011;50261;51.150;4.470;2022-08-07T01:04:56;5.00;;;3.00;;
56381;SDS011;50261;51.150;4.470;2022-08-07T01:07:22;7.50;;;3.50;;
56381;SDS011;50261;51.150;4.470;2022-08-07T01:09:48;6.63;;;3.10;;
56381;SDS011;50261;51.150;4.470;2022-08-07T01:12:14;5.35;;;2.90;;
56381;SDS011;50261;51.150;4.470;2022-08-07T01:14:40;5.90;;;2.75;;
56381;SDS011;50261;51.150;4.470;2022-08-07T01:17:06;4.78;;;2.38;;
56381;SDS011;50261;51.150;4.470;2022-08-07T01:19:32;6.28;;;2.92;;
56381;SDS011;50261;51.150;4.470;2022-08-07T01:21:58;6.45;;;2.42;;
56381;SDS011;50261;51.150;4.470;2022-08-07T01:24:31;6.07;;;2.95;;
56381;SDS011;50261;51.150;4.470;2022-08-07T01:26:58;6.90;;;2.75;;
56381;SDS011;50261;51.150;4.470;2022-08-07T01:29:27;5.18;;;2.50;;
56381;SDS011;50261;51.150;4.470;2022-08-07T01:31:53;4.40;;;2.63;;
56381;SDS011;50261;51.150;4.470;2022-08-07T01:34:19;8.85;;;2.67;;
56381;SDS011;50261;51.150;4.470;2022-08-07T01:36:46;4.05;;;2.55;;
56381;SDS011;50261;51.150;4.470;2022-08-07T01:39:15;5.13;;;2.67;;
56381;SDS011;50261;51.150;4.470;2022-08-07T01:41:48;5.95;;;2.80;;
56381;SDS011;50261;51.150;4.470;2022-08-07T01:44:13;6.28;;;2.80;;
56381;SDS011;50261;51.150;4.470;2022-08-07T01:46:41;6.13;;;2.50;;
56381;SDS011;50261;51.150;4.470;2022-08-07T01:49:09;4.63;;;3.00;;
56381;SDS011;50261;51.150;4.470;2022-08-07T01:51:36;5.43;;;2.85;;
56381;SDS011;50261;51.150;4.470;2022-08-07T01:54:03;7.70;;;3.10;;
56381;SDS011;50261;51.150;4.470;2022-08-07T01:56:35;6.35;;;3.08;;
56381;SDS011;50261;51.150;4.470;2022-08-07T01:59:10;5.03;;;3.00;;
56381;SDS011;50261;51.150;4.470;2022-08-07T02:01:41;4.55;;;2.72;;
56381;SDS011;50261;51.150;4.470;2022-08-07T02:04:10;7.72;;;3.10;;
56381;SDS011;50261;51.150;4.470;2022-08-07T02:06:40;4.95;;;2.92;;
56381;SDS011;50261;51.150;4.470;2022-08-07T02:09:09;4.72;;;2.50;;
56381;SDS011;50261;51.150;4.470;2022-08-07T02:11:37;5.63;;;2.88;;
56381;SDS011;50261;51.150;4.470;2022-08-07T02:14:04;5.32;;;2.75;;
56381;SDS011;50261;51.150;4.470;2022-08-07T02:16:33;6.18;;;3.10;;
56381;SDS011;50261;51.150;4.470;2022-08-07T02:19:01;5.35;;;2.95;;
56381;SDS011;50261;51.150;4.470;2022-08-07T02:21:27;4.63;;;2.70;;
56381;SDS011;50261;51.150;4.470;2022-08-07T02:23:54;5.82;;;3.03;;
56381;SDS011;50261;51.150;4.470;2022-08-07T02:26:22;5.88;;;2.60;;
56381;SDS011;50261;51.150;4.470;2022-08-07T02:28:50;5.93;;;2.72;;
56381;SDS011;50261;51.150;4.470;2022-08-07T02:31:16;4.57;;;2.60;;
56381;SDS011;50261;51.150;4.470;2022-08-07T02:33:42;6.65;;;2.80;;
56381;SDS011;50261;51.150;4.470;2022-08-07T02:36:08;5.68;;;3.30;;
56381;SDS011;50261;51.150;4.470;2022-08-07T02:38:36;6.65;;;3.47;;
56381;SDS011;50261;51.150;4.470;2022-08-07T02:41:03;4.20;;;2.88;;
56381;SDS011;50261;51.150;4.470;2022-08-07T02:43:33;4.55;;;2.47;;
56381;SDS011;50261;51.150;4.470;2022-08-07T02:45:59;6.30;;;3.20;;
56381;SDS011;50261;51.150;4.470;2022-08-07T02:48:26;7.05;;;3.30;;
56381;SDS011;50261;51.150;4.470;2022-08-07T02:50:53;6.43;;;2.65;;
56381;SDS011;50261;51.150;4.470;2022-08-07T02:53:27;6.88;;;3.78;;
56381;SDS011;50261;51.150;4.470;2022-08-07T02:55:56;5.25;;;3.50;;
56381;SDS011;50261;51.150;4.470;2022-08-07T02:58:25;6.28;;;3.90;;
56381;SDS011;50261;51.150;4.470;2022-08-07T03:00:53;3.97;;;3.53;;
56381;SDS011;50261;51.150;4.470;2022-08-07T03:03:21;5.03;;;3.20;;
56381;SDS011;50261;51.150;4.470;2022-08-07T03:05:49;3.97;;;3.13;;
56381;SDS011;50261;51.150;4.470;2022-08-07T03:08:15;7.68;;;3.20;;
56381;SDS011;50261;51.150;4.470;2022-08-07T03:10:44;6.18;;;3.50;;
56381;SDS011;50261;51.150;4.470;2022-08-07T03:13:13;6.40;;;3.67;;
56381;SDS011;50261;51.150;4.470;2022-08-07T03:15:39;6.03;;;3.35;;
56381;SDS011;50261;51.150;4.470;2022-08-07T03:18:05;5.75;;;3.55;;
56381;SDS011;50261;51.150;4.470;2022-08-07T03:20:31;6.05;;;3.25;;
56381;SDS011;50261;51.150;4.470;2022-08-07T03:22:57;7.95;;;3.63;;
56381;SDS011;50261;51.150;4.470;2022-08-07T03:25:23;5.72;;;3.70;;
56381;SDS011;50261;51.150;4.470;2022-08-07T03:27:53;5.88;;;2.80;;
56381;SDS011;50261;51.150;4.470;2022-08-07T03:30:19;6.05;;;3.33;;
56381;SDS011;50261;51.150;4.470;2022-08-07T03:32:48;5.78;;;4.10;;
56381;SDS011;50261;51.150;4.470;2022-08-07T03:35:16;6.57;;;3.25;;
56381;SDS011;50261;51.150;4.470;2022-08-07T03:37:42;6.45;;;3.67;;
56381;SDS011;50261;51.150;4.470;2022-08-07T03:40:10;5.50;;;3.22;;
56381;SDS011;50261;51.150;4.470;2022-08-07T03:42:36;4.15;;;3.55;;
56381;SDS011;50261;51.150;4.470;2022-08-07T03:45:04;5.40;;;3.33;;
56381;SDS011;50261;51.150;4.470;2022-08-07T03:47:30;5.18;;;3.67;;
56381;SDS011;50261;51.150;4.470;2022-08-07T03:49:57;4.60;;;3.60;;
56381;SDS011;50261;51.150;4.470;2022-08-07T03:52:28;6.63;;;3.45;;
56381;SDS011;50261;51.150;4.470;2022-08-07T03:54:59;7.67;;;4.40;;
56381;SDS011;50261;51.150;4.470;2022-08-07T03:57:26;4.93;;;3.63;;
56381;SDS011;50261;51.150;4.470;2022-08-07T03:59:53;5.78;;;4.15;;
56381;SDS011;50261;51.150;4.470;2022-08-07T04:02:20;6.30;;;4.00;;
56381;SDS011;50261;51.150;4.470;2022-08-07T04:04:46;5.07;;;3.80;;
56381;SDS011;50261;51.150;4.470;2022-08-07T04:07:14;6.57;;;3.60;;
56381;SDS011;50261;51.150;4.470;2022-08-07T04:09:40;7.53;;;4.22;;
56381;SDS011;50261;51.150;4.470;2022-08-07T04:12:06;6.70;;;3.83;;
56381;SDS011;50261;51.150;4.470;2022-08-07T04:14:34;5.40;;;3.92;;
56381;SDS011;50261;51.150;4.470;2022-08-07T04:17:00;6.60;;;4.05;;
56381;SDS011;50261;51.150;4.470;2022-08-07T04:19:26;6.80;;;4.30;;
56381;SDS011;50261;51.150;4.470;2022-08-07T04:21:53;5.32;;;3.97;;
56381;SDS011;50261;51.150;4.470;2022-08-07T04:24:19;6.63;;;4.88;;
56381;SDS011;50261;51.150;4.470;2022-08-07T04:26:45;9.45;;;4.72;;
56381;SDS011;50261;51.150;4.470;2022-08-07T04:29:11;7.93;;;4.47;;
56381;SDS011;50261;51.150;4.470;2022-08-07T04:31:37;7.13;;;4.20;;
56381;SDS011;50261;51.150;4.470;2022-08-07T04:34:05;8.63;;;4.60;;
56381;SDS011;50261;51.150;4.470;2022-08-07T04:36:31;6.10;;;4.10;;
56381;SDS011;50261;51.150;4.470;2022-08-07T04:38:59;10.18;;;4.63;;
56381;SDS011;50261;51.150;4.470;2022-08-07T04:41:24;6.35;;;4.40;;
56381;SDS011;50261;51.150;4.470;2022-08-07T04:43:51;7.57;;;4.57;;
56381;SDS011;50261;51.150;4.470;2022-08-07T04:46:26;8.43;;;5.00;;
56381;SDS011;50261;51.150;4.470;2022-08-07T04:49:04;7.43;;;5.10;;
56381;SDS011;50261;51.150;4.470;2022-08-07T04:51:36;8.75;;;5.57;;
56381;SDS011;50261;51.150;4.470;2022-08-07T04:54:07;11.02;;;5.40;;
56381;SDS011;50261;51.150;4.470;2022-08-07T04:59:10;8.57;;;5.30;;
56381;SDS011;50261;51.150;4.470;2022-08-07T05:04:11;8.25;;;5.38;;
56381;SDS011;50261;51.150;4.470;2022-08-07T05:06:43;6.20;;;5.07;;
56381;SDS011;50261;51.150;4.470;2022-08-07T05:11:47;6.65;;;4.85;;
56381;SDS011;50261;51.150;4.470;2022-08-07T05:14:18;7.78;;;4.95;;
56381;SDS011;50261;51.150;4.470;2022-08-07T05:16:44;9.48;;;4.85;;
56381;SDS011;50261;51.150;4.470;2022-08-07T05:19:16;6.97;;;4.85;;
56381;SDS011;50261;51.150;4.470;2022-08-07T05:21:46;8.82;;;5.50;;
56381;SDS011;50261;51.150;4.470;2022-08-07T05:24:14;7.47;;;5.07;;
56381;SDS011;50261;51.150;4.470;2022-08-07T05:26:44;8.88;;;5.28;;
56381;SDS011;50261;51.150;4.470;2022-08-07T05:29:12;6.55;;;4.90;;
56381;SDS011;50261;51.150;4.470;2022-08-07T05:31:39;6.75;;;5.05;;
56381;SDS011;50261;51.150;4.470;2022-08-07T05:34:10;7.55;;;5.05;;
56381;SDS011;50261;51.150;4.470;2022-08-07T05:36:38;9.57;;;5.43;;
56381;SDS011;50261;51.150;4.470;2022-08-07T05:39:12;6.63;;;4.80;;
56381;SDS011;50261;51.150;4.470;2022-08-07T05:41:40;8.82;;;5.30;;
56381;SDS011;50261;51.150;4.470;2022-08-07T05:44:08;7.68;;;4.90;;
56381;SDS011;50261;51.150;4.470;2022-08-07T05:46:35;7.32;;;5.30;;
56381;SDS011;50261;51.150;4.470;2022-08-07T05:49:03;5.85;;;4.97;;
56381;SDS011;50261;51.150;4.470;2022-08-07T05:51:33;8.35;;;4.68;;
56381;SDS011;50261;51.150;4.470;2022-08-07T05:54:00;7.22;;;5.22;;
56381;SDS011;50261;51.150;4.470;2022-08-07T05:56:26;7.90;;;5.35;;
56381;SDS011;50261;51.150;4.470;2022-08-07T05:58:53;7.15;;;5.63;;
56381;SDS011;50261;51.150;4.470;2022-08-07T06:01:22;7.32;;;5.50;;
56381;SDS011;50261;51.150;4.470;2022-08-07T06:03:52;8.90;;;4.82;;
56381;SDS011;50261;51.150;4.470;2022-08-07T06:06:19;6.75;;;5.10;;
56381;SDS011;50261;51.150;4.470;2022-08-07T06:08:47;7.47;;;5.18;;
56381;SDS011;50261;51.150;4.470;2022-08-07T06:11:13;6.47;;;5.05;;
56381;SDS011;50261;51.150;4.470;2022-08-07T06:13:39;7.25;;;5.15;;
56381;SDS011;50261;51.150;4.470;2022-08-07T06:16:06;9.35;;;4.93;;
56381;SDS011;50261;51.150;4.470;2022-08-07T06:18:32;8.90;;;4.95;;
56381;SDS011;50261;51.150;4.470;2022-08-07T06:20:59;6.43;;;4.75;;
56381;SDS011;50261;51.150;4.470;2022-08-07T06:23:25;7.30;;;4.68;;
56381;SDS011;50261;51.150;4.470;2022-08-07T06:25:50;7.75;;;4.38;;
56381;SDS011;50261;51.150;4.470;2022-08-07T06:28:16;7.03;;;4.50;;
56381;SDS011;50261;51.150;4.470;2022-08-07T06:30:42;6.25;;;4.10;;
56381;SDS011;50261;51.150;4.470;2022-08-07T06:33:12;5.25;;;3.88;;
56381;SDS011;50261;51.150;4.470;2022-08-07T06:35:37;6.70;;;3.78;;
56381;SDS011;50261;51.150;4.470;2022-08-07T06:38:03;6.05;;;3.35;;
56381;SDS011;50261;51.150;4.470;2022-08-07T06:40:29;5.05;;;3.83;;
56381;SDS011;50261;51.150;4.470;2022-08-07T06:42:59;5.93;;;3.10;;
56381;SDS011;50261;51.150;4.470;2022-08-07T06:45:36;4.15;;;3.00;;
56381;SDS011;50261;51.150;4.470;2022-08-07T06:48:02;6.35;;;3.10;;
56381;SDS011;50261;51.150;4.470;2022-08-07T06:53:03;4.22;;;2.90;;
56381;SDS011;50261;51.150;4.470;2022-08-07T06:55:32;5.15;;;2.83;;
56381;SDS011;50261;51.150;4.470;2022-08-07T06:58:00;4.70;;;2.83;;
56381;SDS011;50261;51.150;4.470;2022-08-07T07:00:31;4.95;;;2.42;;
56381;SDS011;50261;51.150;4.470;2022-08-07T07:02:59;10.35;;;2.72;;
56381;SDS011;50261;51.150;4.470;2022-08-07T07:05:25;4.15;;;2.50;;
56381;SDS011;50261;51.150;4.470;2022-08-07T07:07:51;3.55;;;2.20;;
56381;SDS011;50261;51.150;4.470;2022-08-07T07:10:17;3.88;;;2.08;;
56381;SDS011;50261;51.150;4.470;2022-08-07T07:15:17;3.20;;;2.33;;
56381;SDS011;50261;51.150;4.470;2022-08-07T07:20:22;2.85;;;2.22;;
56381;SDS011;50261;51.150;4.470;2022-08-07T07:22:49;6.13;;;2.60;;
56381;SDS011;50261;51.150;4.470;2022-08-07T07:25:16;7.72;;;2.92;;
56381;SDS011;50261;51.150;4.470;2022-08-07T07:27:47;4.68;;;2.47;;
56381;SDS011;50261;51.150;4.470;2022-08-07T07:30:14;4.57;;;2.45;;
56381;SDS011;50261;51.150;4.470;2022-08-07T07:32:39;3.45;;;2.70;;
56381;SDS011;50261;51.150;4.470;2022-08-07T07:35:07;4.68;;;3.00;;
56381;SDS011;50261;51.150;4.470;2022-08-07T07:37:35;4.88;;;2.40;;
56381;SDS011;50261;51.150;4.470;2022-08-07T07:40:02;5.25;;;2.40;;
56381;SDS011;50261;51.150;4.470;2022-08-07T07:42:29;5.47;;;2.58;;
56381;SDS011;50261;51.150;4.470;2022-08-07T07:44:56;4.65;;;2.50;;
56381;SDS011;50261;51.150;4.470;2022-08-07T07:47:24;8.20;;;2.80;;
56381;SDS011;50261;51.150;4.470;2022-08-07T07:49:50;7.47;;;2.50;;
56381;SDS011;50261;51.150;4.470;2022-08-07T07:52:17;4.22;;;2.70;;
56381;SDS011;50261;51.150;4.470;2022-08-07T07:54:43;4.68;;;2.47;;
56381;SDS011;50261;51.150;4.470;2022-08-07T07:57:09;4.00;;;2.25;;
56381;SDS011;50261;51.150;4.470;2022-08-07T07:59:37;3.65;;;2.53;;
56381;SDS011;50261;51.150;4.470;2022-08-07T08:02:03;3.55;;;2.53;;
56381;SDS011;50261;51.150;4.470;2022-08-07T08:04:29;3.72;;;2.35;;
56381;SDS011;50261;51.150;4.470;2022-08-07T08:06:56;3.03;;;2.10;;
56381;SDS011;50261;51.150;4.470;2022-08-07T08:09:23;6.63;;;2.55;;
56381;SDS011;50261;51.150;4.470;2022-08-07T08:11:52;2.70;;;2.08;;
56381;SDS011;50261;51.150;4.470;2022-08-07T08:14:17;3.90;;;2.53;;
56381;SDS011;50261;51.150;4.470;2022-08-07T08:16:43;3.28;;;2.20;;
56381;SDS011;50261;51.150;4.470;2022-08-07T08:19:11;4.53;;;2.50;;
56381;SDS011;50261;51.150;4.470;2022-08-07T08:21:38;4.60;;;2.22;;
56381;SDS011;50261;51.150;4.470;2022-08-07T08:24:23;5.70;;;2.63;;
56381;SDS011;50261;51.150;4.470;2022-08-07T08:27:07;2.75;;;2.22;;
56381;SDS011;50261;51.150;4.470;2022-08-07T08:30:07;6.95;;;2.50;;
56381;SDS011;50261;51.150;4.470;2022-08-07T08:32:26;4.38;;;2.13;;
56381;SDS011;50261;51.150;4.470;2022-08-07T08:34:53;6.15;;;2.28;;
56381;SDS011;50261;51.150;4.470;2022-08-07T08:37:21;4.45;;;2.40;;
56381;SDS011;50261;51.150;4.470;2022-08-07T08:39:47;5.10;;;2.15;;
56381;SDS011;50261;51.150;4.470;2022-08-07T08:42:21;5.68;;;1.98;;
56381;SDS011;50261;51.150;4.470;2022-08-07T08:44:53;2.35;;;1.60;;
56381;SDS011;50261;51.150;4.470;2022-08-07T08:47:23;6.90;;;2.30;;
56381;SDS011;50261;51.150;4.470;2022-08-07T08:52:24;4.25;;;2.10;;
56381;SDS011;50261;51.150;4.470;2022-08-07T08:54:58;3.13;;;1.85;;
56381;SDS011;50261;51.150;4.470;2022-08-07T08:57:26;2.72;;;1.52;;
56381;SDS011;50261;51.150;4.470;2022-08-07T08:59:55;2.60;;;1.58;;
56381;SDS011;50261;51.150;4.470;2022-08-07T09:02:39;2.55;;;1.90;;
56381;SDS011;50261;51.150;4.470;2022-08-07T09:10:25;4.97;;;2.50;;
56381;SDS011;50261;51.150;4.470;2022-08-07T09:25:20;3.97;;;2.33;;
56381;SDS011;50261;51.150;4.470;2022-08-07T09:30:17;3.70;;;2.30;;
56381;SDS011;50261;51.150;4.470;2022-08-07T09:35:46;5.90;;;1.75;;
56381;SDS011;50261;51.150;4.470;2022-08-07T09:38:22;5.05;;;2.20;;
56381;SDS011;50261;51.150;4.470;2022-08-07T09:48:48;3.80;;;1.80;;
56381;SDS011;50261;51.150;4.470;2022-08-07T09:53:54;2.65;;;1.33;;
56381;SDS011;50261;51.150;4.470;2022-08-07T09:56:26;3.47;;;2.00;;
56381;SDS011;50261;51.150;4.470;2022-08-07T09:59:07;3.85;;;1.60;;
56381;SDS011;50261;51.150;4.470;2022-08-07T10:07:01;3.17;;;1.40;;
56381;SDS011;50261;51.150;4.470;2022-08-07T10:17:11;3.97;;;1.70;;
56381;SDS011;50261;51.150;4.470;2022-08-07T10:22:20;3.95;;;1.77;;
56381;SDS011;50261;51.150;4.470;2022-08-07T10:27:35;2.20;;;1.40;;
56381;SDS011;50261;51.150;4.470;2022-08-07T10:30:05;3.58;;;1.38;;
56381;SDS011;50261;51.150;4.470;2022-08-07T10:37:50;2.55;;;1.60;;
56381;SDS011;50261;51.150;4.470;2022-08-07T10:40:27;2.97;;;1.60;;
56381;SDS011;50261;51.150;4.470;2022-08-07T10:45:26;2.95;;;1.60;;
56381;SDS011;50261;51.150;4.470;2022-08-07T10:47:58;6.88;;;3.75;;
56381;SDS011;50261;51.150;4.470;2022-08-07T10:50:30;3.60;;;1.42;;
56381;SDS011;50261;51.150;4.470;2022-08-07T11:03:43;2.22;;;1.40;;
56381;SDS011;50261;51.150;4.470;2022-08-07T11:11:08;3.50;;;1.50;;
56381;SDS011;50261;51.150;4.470;2022-08-07T11:16:10;1.77;;;1.10;;
56381;SDS011;50261;51.150;4.470;2022-08-07T11:19:13;4.72;;;1.23;;
56381;SDS011;50261;51.150;4.470;2022-08-07T11:21:38;3.10;;;1.52;;
56381;SDS011;50261;51.150;4.470;2022-08-07T11:29:46;1.70;;;1.08;;
56381;SDS011;50261;51.150;4.470;2022-08-07T11:32:17;1.70;;;1.17;;
56381;SDS011;50261;51.150;4.470;2022-08-07T11:34:57;3.92;;;1.50;;
56381;SDS011;50261;51.150;4.470;2022-08-07T11:42:53;2.00;;;1.27;;
56381;SDS011;50261;51.150;4.470;2022-08-07T11:53:54;2.22;;;1.50;;
56381;SDS011;50261;51.150;4.470;2022-08-07T11:56:34;3.33;;;1.50;;
56381;SDS011;50261;51.150;4.470;2022-08-07T12:06:53;2.58;;;1.10;;
56381;SDS011;50261;51.150;4.470;2022-08-07T12:09:25;2.22;;;1.30;;
56381;SDS011;50261;51.150;4.470;2022-08-07T12:14:28;1.90;;;1.02;;
56381;SDS011;50261;51.150;4.470;2022-08-07T12:17:02;2.78;;;1.35;;
56381;SDS011;50261;51.150;4.470;2022-08-07T12:22:18;1.80;;;1.30;;
56381;SDS011;50261;51.150;4.470;2022-08-07T12:24:58;3.03;;;1.27;;
56381;SDS011;50261;51.150;4.470;2022-08-07T12:27:45;2.08;;;1.25;;
56381;SDS011;50261;51.150;4.470;2022-08-07T12:30:12;2.88;;;1.42;;
56381;SDS011;50261;51.150;4.470;2022-08-07T12:32:42;2.35;;;1.45;;
56381;SDS011;50261;51.150;4.470;2022-08-07T12:35:10;4.35;;;1.30;;
56381;SDS011;50261;51.150;4.470;2022-08-07T12:37:36;2.58;;;1.65;;
56381;SDS011;50261;51.150;4.470;2022-08-07T12:40:04;2.55;;;1.48;;
56381;SDS011;50261;51.150;4.470;2022-08-07T12:42:31;4.07;;;1.55;;
56381;SDS011;50261;51.150;4.470;2022-08-07T12:44:57;2.55;;;1.52;;
56381;SDS011;50261;51.150;4.470;2022-08-07T12:57:47;1.90;;;1.70;;
56381;SDS011;50261;51.150;4.470;2022-08-07T13:00:12;2.95;;;1.75;;
56381;SDS011;50261;51.150;4.470;2022-08-07T13:02:50;2.50;;;1.20;;
56381;SDS011;50261;51.150;4.470;2022-08-07T13:20:19;3.45;;;1.30;;
56381;SDS011;50261;51.150;4.470;2022-08-07T13:22:56;1.95;;;1.20;;
56381;SDS011;50261;51.150;4.470;2022-08-07T13:25:31;2.35;;;1.35;;
56381;SDS011;50261;51.150;4.470;2022-08-07T13:28:02;2.30;;;1.38;;
56381;SDS011;50261;51.150;4.470;2022-08-07T13:30:28;1.80;;;1.02;;
56381;SDS011;50261;51.150;4.470;2022-08-07T13:33:06;1.80;;;1.27;;
56381;SDS011;50261;51.150;4.470;2022-08-07T13:35:46;1.40;;;1.02;;
56381;SDS011;50261;51.150;4.470;2022-08-07T13:38:19;1.60;;;1.30;;
56381;SDS011;50261;51.150;4.470;2022-08-07T13:41:32;1.90;;;1.40;;
56381;SDS011;50261;51.150;4.470;2022-08-07T13:43:31;5.45;;;1.58;;
56381;SDS011;50261;51.150;4.470;2022-08-07T13:45:59;1.95;;;1.27;;
56381;SDS011;50261;51.150;4.470;2022-08-07T13:48:26;3.15;;;1.27;;
56381;SDS011;50261;51.150;4.470;2022-08-07T13:50:54;2.13;;;1.70;;
56381;SDS011;50261;51.150;4.470;2022-08-07T13:53:21;1.80;;;1.30;;
56381;SDS011;50261;51.150;4.470;2022-08-07T13:55:47;2.78;;;1.60;;
56381;SDS011;50261;51.150;4.470;2022-08-07T13:58:13;2.83;;;1.25;;
56381;SDS011;50261;51.150;4.470;2022-08-07T14:01:07;2.17;;;1.30;;
56381;SDS011;50261;51.150;4.470;2022-08-07T14:03:33;2.85;;;1.60;;
56381;SDS011;50261;51.150;4.470;2022-08-07T14:06:04;2.60;;;1.52;;
56381;SDS011;50261;51.150;4.470;2022-08-07T14:08:29;2.17;;;1.20;;
56381;SDS011;50261;51.150;4.470;2022-08-07T14:10:56;2.40;;;1.60;;
56381;SDS011;50261;51.150;4.470;2022-08-07T14:13:25;2.05;;;1.38;;
56381;SDS011;50261;51.150;4.470;2022-08-07T14:15:54;1.60;;;1.50;;
56381;SDS011;50261;51.150;4.470;2022-08-07T14:21:23;1.63;;;1.52;;
56381;SDS011;50261;51.150;4.470;2022-08-07T14:23:52;1.92;;;1.20;;
56381;SDS011;50261;51.150;4.470;2022-08-07T14:26:25;1.70;;;1.30;;
56381;SDS011;50261;51.150;4.470;2022-08-07T14:28:50;2.20;;;1.40;;
56381;SDS011;50261;51.150;4.470;2022-08-07T14:31:17;2.83;;;1.83;;
56381;SDS011;50261;51.150;4.470;2022-08-07T14:33:47;1.40;;;1.30;;
56381;SDS011;50261;51.150;4.470;2022-08-07T14:36:13;5.18;;;1.20;;
56381;SDS011;50261;51.150;4.470;2022-08-07T14:38:39;2.47;;;1.45;;
56381;SDS011;50261;51.150;4.470;2022-08-07T14:41:07;2.47;;;1.40;;
56381;SDS011;50261;51.150;4.470;2022-08-07T14:43:37;1.85;;;1.50;;
56381;SDS011;50261;51.150;4.470;2022-08-07T14:46:03;3.17;;;1.50;;
56381;SDS011;50261;51.150;4.470;2022-08-07T14:48:31;2.15;;;1.60;;
56381;SDS011;50261;51.150;4.470;2022-08-07T14:50:59;2.15;;;1.20;;
56381;SDS011;50261;51.150;4.470;2022-08-07T14:53:26;1.52;;;1.27;;
56381;SDS011;50261;51.150;4.470;2022-08-07T14:55:54;2.15;;;1.33;;
56381;SDS011;50261;51.150;4.470;2022-08-07T14:58:26;2.13;;;1.15;;
56381;SDS011;50261;51.150;4.470;2022-08-07T15:00:55;3.03;;;1.33;;
56381;SDS011;50261;51.150;4.470;2022-08-07T15:03:22;1.92;;;1.30;;
56381;SDS011;50261;51.150;4.470;2022-08-07T15:05:49;1.80;;;1.38;;
56381;SDS011;50261;51.150;4.470;2022-08-07T15:08:17;1.65;;;1.30;;
56381;SDS011;50261;51.150;4.470;2022-08-07T15:10:46;1.42;;;1.33;;
56381;SDS011;50261;51.150;4.470;2022-08-07T15:13:18;1.65;;;1.40;;
56381;SDS011;50261;51.150;4.470;2022-08-07T15:15:49;2.05;;;1.65;;
56381;SDS011;50261;51.150;4.470;2022-08-07T15:18:17;1.90;;;1.45;;
56381;SDS011;50261;51.150;4.470;2022-08-07T15:20:43;2.45;;;1.50;;
56381;SDS011;50261;51.150;4.470;2022-08-07T15:23:21;1.50;;;1.20;;
56381;SDS011;50261;51.150;4.470;2022-08-07T15:25:50;2.88;;;1.30;;
56381;SDS011;50261;51.150;4.470;2022-08-07T15:28:18;2.08;;;1.40;;
56381;SDS011;50261;51.150;4.470;2022-08-07T15:30:47;1.92;;;1.70;;
56381;SDS011;50261;51.150;4.470;2022-08-07T15:33:16;7.03;;;1.70;;
56381;SDS011;50261;51.150;4.470;2022-08-07T15:35:43;2.47;;;1.70;;
56381;SDS011;50261;51.150;4.470;2022-08-07T15:38:13;4.15;;;1.45;;
56381;SDS011;50261;51.150;4.470;2022-08-07T15:40:39;2.33;;;1.55;;
56381;SDS011;50261;51.150;4.470;2022-08-07T15:45:40;3.03;;;1.30;;
56381;SDS011;50261;51.150;4.470;2022-08-07T15:50:37;4.32;;;1.42;;
56381;SDS011;50261;51.150;4.470;2022-08-07T15:53:06;2.70;;;1.60;;
56381;SDS011;50261;51.150;4.470;2022-08-07T15:55:33;1.85;;;1.70;;
56381;SDS011;50261;51.150;4.470;2022-08-07T15:58:00;2.08;;;1.75;;
56381;SDS011;50261;51.150;4.470;2022-08-07T16:00:29;3.03;;;1.80;;
56381;SDS011;50261;51.150;4.470;2022-08-07T16:02:55;1.67;;;1.52;;
56381;SDS011;50261;51.150;4.470;2022-08-07T16:05:21;2.42;;;1.98;;
56381;SDS011;50261;51.150;4.470;2022-08-07T16:07:49;2.40;;;1.50;;
56381;SDS011;50261;51.150;4.470;2022-08-07T16:10:26;1.70;;;1.38;;
56381;SDS011;50261;51.150;4.470;2022-08-07T16:18:07;1.70;;;1.52;;
56381;SDS011;50261;51.150;4.470;2022-08-07T16:23:19;3.28;;;2.10;;
56381;SDS011;50261;51.150;4.470;2022-08-07T16:25:47;4.28;;;1.65;;
56381;SDS011;50261;51.150;4.470;2022-08-07T16:31:05;2.45;;;1.60;;
56381;SDS011;50261;51.150;4.470;2022-08-07T16:33:37;1.90;;;1.70;;
56381;SDS011;50261;51.150;4.470;2022-08-07T16:44:51;2.72;;;1.52;;
56381;SDS011;50261;51.150;4.470;2022-08-07T16:52:02;3.20;;;1.60;;
56381;SDS011;50261;51.150;4.470;2022-08-07T17:07:42;2.65;;;1.52;;
56381;SDS011;50261;51.150;4.470;2022-08-07T17:10:18;3.03;;;1.58;;
56381;SDS011;50261;51.150;4.470;2022-08-07T17:20:21;5.63;;;1.58;;
56381;SDS011;50261;51.150;4.470;2022-08-07T17:22:55;4.07;;;1.70;;
56381;SDS011;50261;51.150;4.470;2022-08-07T17:25:25;4.30;;;2.00;;
56381;SDS011;50261;51.150;4.470;2022-08-07T17:27:59;4.28;;;1.98;;
56381;SDS011;50261;51.150;4.470;2022-08-07T17:30:29;3.20;;;1.70;;
56381;SDS011;50261;51.150;4.470;2022-08-07T17:33:13;5.57;;;1.60;;
56381;SDS011;50261;51.150;4.470;2022-08-07T17:38:16;4.05;;;1.63;;
56381;SDS011;50261;51.150;4.470;2022-08-07T17:43:32;4.68;;;1.80;;
56381;SDS011;50261;51.150;4.470;2022-08-07T17:48:43;2.90;;;1.83;;
56381;SDS011;50261;51.150;4.470;2022-08-07T17:52:16;3.37;;;1.90;;
56381;SDS011;50261;51.150;4.470;2022-08-07T17:56:37;6.55;;;1.90;;
56381;SDS011;50261;51.150;4.470;2022-08-07T17:59:24;3.35;;;1.80;;
56381;SDS011;50261;51.150;4.470;2022-08-07T18:01:54;6.20;;;2.00;;
56381;SDS011;50261;51.150;4.470;2022-08-07T18:06:50;2.47;;;1.52;;
56381;SDS011;50261;51.150;4.470;2022-08-07T18:09:21;4.03;;;1.95;;
56381;SDS011;50261;51.150;4.470;2022-08-07T18:11:54;4.07;;;1.80;;
56381;SDS011;50261;51.150;4.470;2022-08-07T18:14:27;4.38;;;1.98;;
56381;SDS011;50261;51.150;4.470;2022-08-07T18:17:01;4.18;;;1.60;;
56381;SDS011;50261;51.150;4.470;2022-08-07T18:19:46;4.38;;;1.80;;
56381;SDS011;50261;51.150;4.470;2022-08-07T18:24:52;2.70;;;1.73;;
56381;SDS011;50261;51.150;4.470;2022-08-07T18:30:22;8.70;;;2.03;;
56381;SDS011;50261;51.150;4.470;2022-08-07T18:35:31;4.28;;;1.88;;
56381;SDS011;50261;51.150;4.470;2022-08-07T18:40:28;3.90;;;1.90;;
56381;SDS011;50261;51.150;4.470;2022-08-07T18:45:26;3.88;;;1.83;;
56381;SDS011;50261;51.150;4.470;2022-08-07T18:47:57;4.63;;;2.00;;
56381;SDS011;50261;51.150;4.470;2022-08-07T18:50:27;6.18;;;1.77;;
56381;SDS011;50261;51.150;4.470;2022-08-07T18:55:49;4.10;;;1.90;;